sensor_id;sensor_type;location;lat;lon;timestamp;pressure;altitude;pressure_sealevel;temperature;humidity
33953;BME280;20231;42.710;23.280;2023-02-13T00:00:42;96678.53;;;4.00;62.48
33953;BME280;20231;42.710;23.280;2023-02-13T00:03:08;96668.03;;;3.81;62.77
33953;BME280;20231;42.710;23.280;2023-02-13T00:05:33;96677.78;;;3.66;63.42
33953;BME280;20231;42.710;23.280;2023-02-13T00:07:58;96675.88;;;3.87;63.19
33953;BME280;20231;42.710;23.280;2023-02-13T00:10:24;96673.88;;;3.89;63.17
33953;BME280;20231;42.710;23.280;2023-02-13T00:12:49;96686.75;;;3.97;63.33
33953;BME280;20231;42.710;23.280;2023-02-13T00:15:15;96680.38;;;4.00;63.16
33953;BME280;20231;42.710;23.280;2023-02-13T00:17:40;96682.56;;;4.03;62.74
33953;BME280;20231;42.710;23.280;2023-02-13T00:20:06;96689.41;;;4.10;62.40
33953;BME280;20231;42.710;23.280;2023-02-13T00:22:36;96688.81;;;4.08;62.61
33953;BME280;20231;42.710;23.280;2023-02-13T00:25:03;96678.56;;;4.07;62.79
33953;BME280;20231;42.710;23.280;2023-02-13T00:27:29;96676.16;;;4.05;62.53
33953;BME280;20231;42.710;23.280;2023-02-13T00:29:54;96684.75;;;3.99;62.73
33953;BME280;20231;42.710;23.280;2023-02-13T00:32:20;96677.09;;;3.91;62.94
33953;BME280;20231;42.710;23.280;2023-02-13T00:34:45;96679.69;;;3.91;62.38
33953;BME280;20231;42.710;23.280;2023-02-13T00:37:11;96694.00;;;4.02;62.22
33953;BME280;20231;42.710;23.280;2023-02-13T00:39:36;96688.44;;;3.64;63.48
33953;BME280;20231;42.710;23.280;2023-02-13T00:42:01;96673.00;;;3.69;62.95
33953;BME280;20231;42.710;23.280;2023-02-13T00:44:27;96691.13;;;3.84;62.64
33953;BME280;20231;42.710;23.280;2023-02-13T00:46:52;96690.50;;;3.82;62.71
33953;BME280;20231;42.710;23.280;2023-02-13T00:49:17;96678.13;;;3.90;62.47
33953;BME280;20231;42.710;23.280;2023-02-13T00:51:43;96679.28;;;3.88;62.03
33953;BME280;20231;42.710;23.280;2023-02-13T00:54:08;96679.81;;;3.70;62.22
33953;BME280;20231;42.710;23.280;2023-02-13T00:56:34;96686.06;;;3.76;62.20
33953;BME280;20231;42.710;23.280;2023-02-13T00:58:59;96687.88;;;3.82;62.61
33953;BME280;20231;42.710;23.280;2023-02-13T01:01:24;96702.19;;;3.86;63.04
33953;BME280;20231;42.710;23.280;2023-02-13T01:03:50;96703.63;;;3.95;62.50
33953;BME280;20231;42.710;23.280;2023-02-13T01:06:15;96700.84;;;3.96;63.05
33953;BME280;20231;42.710;23.280;2023-02-13T01:08:41;96701.56;;;3.84;63.18
33953;BME280;20231;42.710;23.280;2023-02-13T01:11:06;96702.81;;;3.94;63.00
33953;BME280;20231;42.710;23.280;2023-02-13T01:13:32;96694.56;;;3.91;62.79
33953;BME280;20231;42.710;23.280;2023-02-13T01:15:58;96698.81;;;3.92;62.32
33953;BME280;20231;42.710;23.280;2023-02-13T01:18:23;96699.56;;;3.86;62.84
33953;BME280;20231;42.710;23.280;2023-02-13T01:21:01;96679.47;;;3.80;62.67
33953;BME280;20231;42.710;23.280;2023-02-13T01:23:36;96695.13;;;3.80;63.03
33953;BME280;20231;42.710;23.280;2023-02-13T01:26:03;96696.16;;;3.85;62.70
33953;BME280;20231;42.710;23.280;2023-02-13T01:28:29;96698.13;;;3.77;62.75
33953;BME280;20231;42.710;23.280;2023-02-13T01:30:56;96706.22;;;3.95;62.69
33953;BME280;20231;42.710;23.280;2023-02-13T01:33:23;96694.38;;;3.92;62.49
33953;BME280;20231;42.710;23.280;2023-02-13T01:35:49;96701.63;;;4.03;62.41
33953;BME280;20231;42.710;23.280;2023-02-13T01:38:15;96707.06;;;3.95;62.43
33953;BME280;20231;42.710;23.280;2023-02-13T01:40:48;96717.50;;;3.95;62.46
33953;BME280;20231;42.710;23.280;2023-02-13T01:43:14;96713.09;;;4.02;62.87
33953;BME280;20231;42.710;23.280;2023-02-13T01:45:41;96705.16;;;3.83;63.04
33953;BME280;20231;42.710;23.280;2023-02-13T01:48:19;96719.28;;;3.95;63.20
33953;BME280;20231;42.710;23.280;2023-02-13T01:50:53;96718.09;;;3.97;63.16
33953;BME280;20231;42.710;23.280;2023-02-13T01:53:32;96722.13;;;4.00;63.45
33953;BME280;20231;42.710;23.280;2023-02-13T01:58:39;96725.19;;;4.10;63.44
33953;BME280;20231;42.710;23.280;2023-02-13T02:01:07;96729.84;;;4.14;63.48
33953;BME280;20231;42.710;23.280;2023-02-13T02:03:38;96722.00;;;4.14;62.96
33953;BME280;20231;42.710;23.280;2023-02-13T02:06:07;96720.75;;;4.10;62.82
33953;BME280;20231;42.710;23.280;2023-02-13T02:08:35;96723.94;;;3.99;63.32
33953;BME280;20231;42.710;23.280;2023-02-13T02:11:08;96711.69;;;4.00;63.51
33953;BME280;20231;42.710;23.280;2023-02-13T02:13:36;96714.06;;;3.95;63.50
33953;BME280;20231;42.710;23.280;2023-02-13T02:16:01;96699.16;;;3.82;63.85
33953;BME280;20231;42.710;23.280;2023-02-13T02:18:27;96709.03;;;3.93;63.86
33953;BME280;20231;42.710;23.280;2023-02-13T02:35:32;96712.53;;;4.13;63.56
33953;BME280;20231;42.710;23.280;2023-02-13T02:38:27;96721.16;;;4.14;63.67
33953;BME280;20231;42.710;23.280;2023-02-13T02:41:41;96731.88;;;4.25;63.26
33953;BME280;20231;42.710;23.280;2023-02-13T02:44:39;96734.44;;;4.19;63.58
33953;BME280;20231;42.710;23.280;2023-02-13T02:50:28;96725.13;;;3.97;63.87
33953;BME280;20231;42.710;23.280;2023-02-13T02:53:09;96731.81;;;4.06;63.75
33953;BME280;20231;42.710;23.280;2023-02-13T03:00:54;96741.47;;;4.12;63.82
33953;BME280;20231;42.710;23.280;2023-02-13T03:03:40;96714.09;;;4.01;63.95
33953;BME280;20231;42.710;23.280;2023-02-13T03:06:39;96734.31;;;3.86;64.74
33953;BME280;20231;42.710;23.280;2023-02-13T03:09:11;96741.84;;;4.02;63.93
33953;BME280;20231;42.710;23.280;2023-02-13T03:11:57;96738.50;;;3.81;64.53
33953;BME280;20231;42.710;23.280;2023-02-13T03:14:41;96729.63;;;3.75;64.58
33953;BME280;20231;42.710;23.280;2023-02-13T03:17:10;96735.78;;;3.61;64.88
33953;BME280;20231;42.710;23.280;2023-02-13T03:20:29;96739.38;;;3.60;64.85
33953;BME280;20231;42.710;23.280;2023-02-13T03:23:18;96738.66;;;3.73;65.06
33953;BME280;20231;42.710;23.280;2023-02-13T03:28:35;96746.72;;;3.78;65.22
33953;BME280;20231;42.710;23.280;2023-02-13T03:34:05;96742.50;;;3.77;64.82
33953;BME280;20231;42.710;23.280;2023-02-13T03:36:46;96745.56;;;3.87;64.51
33953;BME280;20231;42.710;23.280;2023-02-13T03:39:53;96749.13;;;3.79;64.69
33953;BME280;20231;42.710;23.280;2023-02-13T03:42:40;96741.72;;;3.83;64.48
33953;BME280;20231;42.710;23.280;2023-02-13T03:48:35;96746.56;;;3.86;64.32
33953;BME280;20231;42.710;23.280;2023-02-13T03:51:26;96742.34;;;3.91;64.20
33953;BME280;20231;42.710;23.280;2023-02-13T03:53:56;96745.63;;;3.59;65.03
33953;BME280;20231;42.710;23.280;2023-02-13T03:56:25;96742.31;;;3.51;65.60
33953;BME280;20231;42.710;23.280;2023-02-13T03:59:19;96737.06;;;3.45;65.68
33953;BME280;20231;42.710;23.280;2023-02-13T04:02:00;96743.34;;;3.50;64.97
33953;BME280;20231;42.710;23.280;2023-02-13T04:07:12;96734.66;;;3.77;63.92
33953;BME280;20231;42.710;23.280;2023-02-13T04:09:59;96728.47;;;3.51;64.47
33953;BME280;20231;42.710;23.280;2023-02-13T04:12:56;96746.47;;;3.39;65.21
33953;BME280;20231;42.710;23.280;2023-02-13T04:15:32;96741.09;;;3.20;65.72
33953;BME280;20231;42.710;23.280;2023-02-13T04:18:04;96744.13;;;3.44;65.22
33953;BME280;20231;42.710;23.280;2023-02-13T04:20:32;96735.47;;;3.44;65.18
33953;BME280;20231;42.710;23.280;2023-02-13T04:23:03;96755.69;;;3.42;65.34
33953;BME280;20231;42.710;23.280;2023-02-13T04:25:29;96746.69;;;3.71;64.26
33953;BME280;20231;42.710;23.280;2023-02-13T04:27:55;96744.38;;;3.55;64.33
33953;BME280;20231;42.710;23.280;2023-02-13T04:30:20;96749.66;;;3.68;64.20
33953;BME280;20231;42.710;23.280;2023-02-13T04:32:46;96743.69;;;3.74;63.73
33953;BME280;20231;42.710;23.280;2023-02-13T04:35:11;96744.16;;;3.84;63.40
33953;BME280;20231;42.710;23.280;2023-02-13T04:37:38;96742.81;;;3.34;64.75
33953;BME280;20231;42.710;23.280;2023-02-13T04:40:03;96741.72;;;3.49;64.17
33953;BME280;20231;42.710;23.280;2023-02-13T04:42:29;96747.97;;;3.54;64.19
33953;BME280;20231;42.710;23.280;2023-02-13T04:44:54;96751.50;;;3.41;64.64
33953;BME280;20231;42.710;23.280;2023-02-13T04:47:19;96743.94;;;3.52;64.35
33953;BME280;20231;42.710;23.280;2023-02-13T04:49:45;96754.03;;;3.61;64.08
33953;BME280;20231;42.710;23.280;2023-02-13T04:52:10;96751.91;;;3.71;63.63
33953;BME280;20231;42.710;23.280;2023-02-13T04:54:36;96758.72;;;3.72;63.63
33953;BME280;20231;42.710;23.280;2023-02-13T04:57:01;96762.44;;;3.57;64.00
33953;BME280;20231;42.710;23.280;2023-02-13T04:59:26;96751.94;;;3.78;63.65
33953;BME280;20231;42.710;23.280;2023-02-13T05:01:52;96755.88;;;3.67;63.56
33953;BME280;20231;42.710;23.280;2023-02-13T05:04:18;96761.31;;;3.72;63.41
33953;BME280;20231;42.710;23.280;2023-02-13T05:06:43;96766.41;;;3.80;62.85
33953;BME280;20231;42.710;23.280;2023-02-13T05:09:09;96772.47;;;3.87;62.68
33953;BME280;20231;42.710;23.280;2023-02-13T05:11:34;96770.97;;;3.72;62.79
33953;BME280;20231;42.710;23.280;2023-02-13T05:14:00;96753.91;;;3.69;62.15
33953;BME280;20231;42.710;23.280;2023-02-13T05:16:25;96771.69;;;3.32;63.24
33953;BME280;20231;42.710;23.280;2023-02-13T05:18:50;96768.59;;;3.22;63.54
33953;BME280;20231;42.710;23.280;2023-02-13T05:21:20;96771.84;;;3.24;63.81
33953;BME280;20231;42.710;23.280;2023-02-13T05:24:04;96774.69;;;3.29;63.56
33953;BME280;20231;42.710;23.280;2023-02-13T05:26:30;96774.25;;;3.26;63.25
33953;BME280;20231;42.710;23.280;2023-02-13T05:28:55;96781.72;;;3.08;64.37
33953;BME280;20231;42.710;23.280;2023-02-13T05:31:39;96793.69;;;3.23;63.89
33953;BME280;20231;42.710;23.280;2023-02-13T05:34:04;96789.38;;;3.64;62.84
33953;BME280;20231;42.710;23.280;2023-02-13T05:36:29;96767.78;;;3.76;62.13
33953;BME280;20231;42.710;23.280;2023-02-13T05:38:55;96787.69;;;3.50;63.23
33953;BME280;20231;42.710;23.280;2023-02-13T05:41:20;96767.50;;;3.10;64.24
33953;BME280;20231;42.710;23.280;2023-02-13T05:43:46;96789.78;;;3.34;64.47
33953;BME280;20231;42.710;23.280;2023-02-13T05:46:11;96789.66;;;3.00;65.07
33953;BME280;20231;42.710;23.280;2023-02-13T05:48:37;96788.69;;;3.22;65.03
33953;BME280;20231;42.710;23.280;2023-02-13T05:51:03;96789.59;;;3.14;65.21
33953;BME280;20231;42.710;23.280;2023-02-13T05:53:28;96783.94;;;3.32;64.54
33953;BME280;20231;42.710;23.280;2023-02-13T05:55:54;96786.09;;;3.28;64.77
33953;BME280;20231;42.710;23.280;2023-02-13T05:58:20;96791.44;;;3.41;64.22
33953;BME280;20231;42.710;23.280;2023-02-13T06:00:46;96791.91;;;3.51;63.77
33953;BME280;20231;42.710;23.280;2023-02-13T06:03:11;96795.75;;;3.28;64.60
33953;BME280;20231;42.710;23.280;2023-02-13T06:05:37;96792.63;;;3.39;64.19
33953;BME280;20231;42.710;23.280;2023-02-13T06:08:02;96799.16;;;3.07;65.07
33953;BME280;20231;42.710;23.280;2023-02-13T06:10:28;96811.66;;;3.39;64.62
33953;BME280;20231;42.710;23.280;2023-02-13T06:12:53;96797.72;;;3.26;64.73
33953;BME280;20231;42.710;23.280;2023-02-13T06:15:18;96808.81;;;3.55;63.94
33953;BME280;20231;42.710;23.280;2023-02-13T06:17:44;96812.84;;;3.57;63.55
33953;BME280;20231;42.710;23.280;2023-02-13T06:20:09;96816.56;;;3.49;63.99
33953;BME280;20231;42.710;23.280;2023-02-13T06:22:35;96821.50;;;3.37;64.21
33953;BME280;20231;42.710;23.280;2023-02-13T06:25:00;96820.22;;;3.54;64.12
33953;BME280;20231;42.710;23.280;2023-02-13T06:27:25;96819.94;;;3.43;63.93
33953;BME280;20231;42.710;23.280;2023-02-13T06:29:51;96824.59;;;3.74;63.21
33953;BME280;20231;42.710;23.280;2023-02-13T06:32:16;96832.50;;;3.81;62.83
33953;BME280;20231;42.710;23.280;2023-02-13T06:34:42;96819.59;;;3.52;63.24
33953;BME280;20231;42.710;23.280;2023-02-13T06:37:07;96816.19;;;3.24;64.09
33953;BME280;20231;42.710;23.280;2023-02-13T06:39:33;96828.38;;;3.65;63.22
33953;BME280;20231;42.710;23.280;2023-02-13T06:41:58;96821.00;;;3.75;62.72
33953;BME280;20231;42.710;23.280;2023-02-13T06:44:24;96825.16;;;3.70;62.36
33953;BME280;20231;42.710;23.280;2023-02-13T06:46:49;96831.53;;;3.61;62.92
33953;BME280;20231;42.710;23.280;2023-02-13T06:49:14;96829.44;;;3.50;63.55
33953;BME280;20231;42.710;23.280;2023-02-13T06:51:40;96825.59;;;3.46;63.48
33953;BME280;20231;42.710;23.280;2023-02-13T06:54:05;96820.22;;;3.54;63.91
33953;BME280;20231;42.710;23.280;2023-02-13T06:56:30;96826.91;;;3.63;63.41
33953;BME280;20231;42.710;23.280;2023-02-13T06:58:57;96823.03;;;3.80;62.47
33953;BME280;20231;42.710;23.280;2023-02-13T07:01:22;96813.38;;;3.74;63.13
33953;BME280;20231;42.710;23.280;2023-02-13T07:03:47;96828.09;;;3.88;62.57
33953;BME280;20231;42.710;23.280;2023-02-13T07:06:17;96826.66;;;3.85;63.06
33953;BME280;20231;42.710;23.280;2023-02-13T07:08:43;96824.53;;;3.95;62.76
33953;BME280;20231;42.710;23.280;2023-02-13T07:11:18;96817.28;;;3.91;62.73
33953;BME280;20231;42.710;23.280;2023-02-13T07:13:44;96809.81;;;3.88;62.62
33953;BME280;20231;42.710;23.280;2023-02-13T07:16:09;96810.94;;;4.06;62.03
33953;BME280;20231;42.710;23.280;2023-02-13T07:18:35;96825.97;;;3.98;62.49
33953;BME280;20231;42.710;23.280;2023-02-13T07:21:00;96823.97;;;4.00;62.32
33953;BME280;20231;42.710;23.280;2023-02-13T07:23:25;96831.94;;;3.92;62.87
33953;BME280;20231;42.710;23.280;2023-02-13T07:25:51;96824.34;;;3.97;62.66
33953;BME280;20231;42.710;23.280;2023-02-13T07:28:16;96828.66;;;4.11;62.48
33953;BME280;20231;42.710;23.280;2023-02-13T07:30:42;96837.19;;;3.98;62.83
33953;BME280;20231;42.710;23.280;2023-02-13T07:33:08;96818.56;;;4.01;62.48
33953;BME280;20231;42.710;23.280;2023-02-13T07:35:34;96831.06;;;4.12;62.62
33953;BME280;20231;42.710;23.280;2023-02-13T07:38:02;96827.47;;;4.13;62.86
33953;BME280;20231;42.710;23.280;2023-02-13T07:40:27;96825.72;;;4.26;62.37
33953;BME280;20231;42.710;23.280;2023-02-13T07:42:53;96827.34;;;4.27;61.92
33953;BME280;20231;42.710;23.280;2023-02-13T07:45:19;96826.53;;;4.27;62.21
33953;BME280;20231;42.710;23.280;2023-02-13T07:47:44;96832.59;;;4.34;62.31
33953;BME280;20231;42.710;23.280;2023-02-13T07:50:10;96832.22;;;4.43;62.35
33953;BME280;20231;42.710;23.280;2023-02-13T07:52:35;96833.72;;;4.59;61.97
33953;BME280;20231;42.710;23.280;2023-02-13T07:55:02;96827.31;;;4.68;61.78
33953;BME280;20231;42.710;23.280;2023-02-13T07:57:28;96827.34;;;4.74;61.61
33953;BME280;20231;42.710;23.280;2023-02-13T07:59:53;96833.78;;;4.78;61.65
33953;BME280;20231;42.710;23.280;2023-02-13T08:02:18;96827.56;;;4.86;61.26
33953;BME280;20231;42.710;23.280;2023-02-13T08:04:44;96816.66;;;4.69;61.43
33953;BME280;20231;42.710;23.280;2023-02-13T08:07:11;96838.84;;;4.86;61.38
33953;BME280;20231;42.710;23.280;2023-02-13T08:09:36;96840.84;;;4.84;61.29
33953;BME280;20231;42.710;23.280;2023-02-13T08:12:21;96832.19;;;4.84;61.51
33953;BME280;20231;42.710;23.280;2023-02-13T08:14:46;96829.38;;;4.85;61.07
33953;BME280;20231;42.710;23.280;2023-02-13T08:17:12;96830.38;;;4.91;61.24
33953;BME280;20231;42.710;23.280;2023-02-13T08:19:37;96830.63;;;4.95;61.17
33953;BME280;20231;42.710;23.280;2023-02-13T08:22:03;96828.81;;;4.90;61.37
33953;BME280;20231;42.710;23.280;2023-02-13T08:24:28;96820.34;;;4.94;61.21
33953;BME280;20231;42.710;23.280;2023-02-13T08:26:55;96827.97;;;4.83;61.45
33953;BME280;20231;42.710;23.280;2023-02-13T08:29:21;96836.22;;;4.86;61.28
33953;BME280;20231;42.710;23.280;2023-02-13T08:31:46;96835.44;;;4.45;62.12
33953;BME280;20231;42.710;23.280;2023-02-13T08:34:11;96822.66;;;4.63;62.12
33953;BME280;20231;42.710;23.280;2023-02-13T08:36:37;96818.03;;;4.59;62.39
33953;BME280;20231;42.710;23.280;2023-02-13T08:39:02;96824.72;;;4.81;61.74
33953;BME280;20231;42.710;23.280;2023-02-13T08:41:28;96834.41;;;4.93;61.72
33953;BME280;20231;42.710;23.280;2023-02-13T08:43:53;96836.44;;;4.97;61.61
33953;BME280;20231;42.710;23.280;2023-02-13T08:46:19;96829.00;;;5.01;61.16
33953;BME280;20231;42.710;23.280;2023-02-13T08:48:45;96810.28;;;4.91;61.22
33953;BME280;20231;42.710;23.280;2023-02-13T08:51:12;96823.56;;;4.90;61.71
33953;BME280;20231;42.710;23.280;2023-02-13T08:53:38;96833.66;;;4.99;61.80
33953;BME280;20231;42.710;23.280;2023-02-13T08:56:04;96833.66;;;5.12;61.21
33953;BME280;20231;42.710;23.280;2023-02-13T08:58:29;96826.97;;;4.96;61.34
33953;BME280;20231;42.710;23.280;2023-02-13T09:00:55;96835.97;;;4.75;61.81
33953;BME280;20231;42.710;23.280;2023-02-13T09:03:20;96804.22;;;4.84;61.98
33953;BME280;20231;42.710;23.280;2023-02-13T09:05:46;96831.03;;;4.99;61.83
33953;BME280;20231;42.710;23.280;2023-02-13T09:08:12;96840.38;;;5.92;84.06
33953;BME280;20231;42.710;23.280;2023-02-13T09:10:39;96827.66;;;5.57;72.20
33953;BME280;20231;42.710;23.280;2023-02-13T09:13:05;96829.06;;;5.40;62.99
33953;BME280;20231;42.710;23.280;2023-02-13T09:15:30;96806.31;;;5.34;61.97
33953;BME280;20231;42.710;23.280;2023-02-13T09:17:56;96835.75;;;5.49;61.76
33953;BME280;20231;42.710;23.280;2023-02-13T09:20:22;96829.69;;;5.55;61.43
33953;BME280;20231;42.710;23.280;2023-02-13T09:22:48;96816.78;;;5.34;61.43
33953;BME280;20231;42.710;23.280;2023-02-13T09:25:13;96831.09;;;5.44;61.42
33953;BME280;20231;42.710;23.280;2023-02-13T09:27:39;96828.66;;;5.56;61.09
33953;BME280;20231;42.710;23.280;2023-02-13T09:30:08;96830.47;;;5.62;60.84
33953;BME280;20231;42.710;23.280;2023-02-13T09:32:37;96808.75;;;5.55;60.45
33953;BME280;20231;42.710;23.280;2023-02-13T09:35:05;96819.63;;;5.52;60.87
33953;BME280;20231;42.710;23.280;2023-02-13T09:37:31;96820.63;;;5.57;60.72
33953;BME280;20231;42.710;23.280;2023-02-13T09:39:56;96806.94;;;5.49;61.04
33953;BME280;20231;42.710;23.280;2023-02-13T09:42:27;96814.16;;;5.66;60.87
33953;BME280;20231;42.710;23.280;2023-02-13T09:44:57;96806.09;;;5.67;60.66
33953;BME280;20231;42.710;23.280;2023-02-13T09:47:36;96805.91;;;5.75;60.02
33953;BME280;20231;42.710;23.280;2023-02-13T09:52:35;96796.84;;;5.33;61.50
33953;BME280;20231;42.710;23.280;2023-02-13T09:55:03;96792.84;;;5.43;61.58
33953;BME280;20231;42.710;23.280;2023-02-13T09:57:44;96790.22;;;5.50;61.26
33953;BME280;20231;42.710;23.280;2023-02-13T10:00:39;96795.53;;;4.64;62.95
33953;BME280;20231;42.710;23.280;2023-02-13T10:05:51;96780.94;;;5.02;62.52
33953;BME280;20231;42.710;23.280;2023-02-13T10:11:27;96783.38;;;5.42;63.16
33953;BME280;20231;42.710;23.280;2023-02-13T10:14:16;96776.53;;;5.41;61.42
33953;BME280;20231;42.710;23.280;2023-02-13T10:16:52;96757.19;;;5.03;61.87
33953;BME280;20231;42.710;23.280;2023-02-13T10:22:19;96745.03;;;4.51;63.45
33953;BME280;20231;42.710;23.280;2023-02-13T10:24:53;96752.13;;;4.83;63.25
33953;BME280;20231;42.710;23.280;2023-02-13T10:27:26;96744.63;;;4.54;63.72
33953;BME280;20231;42.710;23.280;2023-02-13T10:29:59;96740.50;;;5.04;62.96
33953;BME280;20231;42.710;23.280;2023-02-13T10:35:28;96737.06;;;5.49;61.36
33953;BME280;20231;42.710;23.280;2023-02-13T10:37:57;96742.69;;;5.78;61.09
33953;BME280;20231;42.710;23.280;2023-02-13T10:40:38;96723.25;;;6.05;60.05
33953;BME280;20231;42.710;23.280;2023-02-13T10:43:09;96722.44;;;6.11;60.01
33953;BME280;20231;42.710;23.280;2023-02-13T10:46:02;96720.84;;;6.10;59.15
33953;BME280;20231;42.710;23.280;2023-02-13T10:51:24;96720.66;;;6.49;58.43
33953;BME280;20231;42.710;23.280;2023-02-13T10:54:14;96722.19;;;6.63;57.22
33953;BME280;20231;42.710;23.280;2023-02-13T10:57:00;96691.25;;;6.40;57.26
33953;BME280;20231;42.710;23.280;2023-02-13T11:02:33;96693.63;;;6.48;57.27
33953;BME280;20231;42.710;23.280;2023-02-13T11:05:16;96691.66;;;6.75;56.97
33953;BME280;20231;42.710;23.280;2023-02-13T11:07:46;96694.09;;;7.01;56.20
33953;BME280;20231;42.710;23.280;2023-02-13T11:10:19;96691.53;;;7.18;56.09
33953;BME280;20231;42.710;23.280;2023-02-13T11:12:45;96682.06;;;7.35;55.54
33953;BME280;20231;42.710;23.280;2023-02-13T11:15:26;96679.94;;;7.50;54.70
33953;BME280;20231;42.710;23.280;2023-02-13T11:17:55;96667.88;;;7.43;54.42
33953;BME280;20231;42.710;23.280;2023-02-13T11:22:47;96663.16;;;6.17;57.02
33953;BME280;20231;42.710;23.280;2023-02-13T11:25:17;96653.13;;;6.44;56.31
33953;BME280;20231;42.710;23.280;2023-02-13T11:27:45;96636.56;;;6.75;56.09
33953;BME280;20231;42.710;23.280;2023-02-13T11:32:59;96643.75;;;6.86;53.28
33953;BME280;20231;42.710;23.280;2023-02-13T11:40:33;96624.50;;;7.76;57.18
33953;BME280;20231;42.710;23.280;2023-02-13T11:42:58;96616.03;;;7.74;52.16
33953;BME280;20231;42.710;23.280;2023-02-13T11:45:24;96619.88;;;7.72;51.25
33953;BME280;20231;42.710;23.280;2023-02-13T11:47:51;96612.59;;;7.91;51.35
33953;BME280;20231;42.710;23.280;2023-02-13T11:50:19;96608.75;;;8.23;50.45
33953;BME280;20231;42.710;23.280;2023-02-13T11:52:53;96606.66;;;8.43;49.54
33953;BME280;20231;42.710;23.280;2023-02-13T11:55:34;96606.25;;;8.28;48.86
33953;BME280;20231;42.710;23.280;2023-02-13T11:58:23;96598.03;;;8.07;48.16
33953;BME280;20231;42.710;23.280;2023-02-13T12:00:47;96580.84;;;8.22;47.70
33953;BME280;20231;42.710;23.280;2023-02-13T12:08:28;96575.47;;;7.52;48.49
33953;BME280;20231;42.710;23.280;2023-02-13T12:10:55;96573.72;;;7.64;48.74
33953;BME280;20231;42.710;23.280;2023-02-13T12:13:30;96588.84;;;7.98;48.20
33953;BME280;20231;42.710;23.280;2023-02-13T12:16:04;96571.47;;;8.15;47.11
33953;BME280;20231;42.710;23.280;2023-02-13T12:18:43;96587.91;;;8.40;46.69
33953;BME280;20231;42.710;23.280;2023-02-13T12:26:32;96563.84;;;7.78;46.28
33953;BME280;20231;42.710;23.280;2023-02-13T12:29:18;96574.69;;;7.99;46.26
33953;BME280;20231;42.710;23.280;2023-02-13T12:31:54;96566.16;;;8.33;45.90
33953;BME280;20231;42.710;23.280;2023-02-13T12:34:43;96570.72;;;8.37;45.28
33953;BME280;20231;42.710;23.280;2023-02-13T12:45:37;96552.44;;;8.13;45.22
33953;BME280;20231;42.710;23.280;2023-02-13T12:48:59;96547.59;;;7.98;45.71
33953;BME280;20231;42.710;23.280;2023-02-13T12:57:22;96525.34;;;8.30;45.27
33953;BME280;20231;42.710;23.280;2023-02-13T13:00:12;96509.75;;;8.29;45.27
33953;BME280;20231;42.710;23.280;2023-02-13T13:02:50;96535.22;;;8.80;46.05
33953;BME280;20231;42.710;23.280;2023-02-13T13:16:09;96523.66;;;8.58;44.35
33953;BME280;20231;42.710;23.280;2023-02-13T13:24:04;96513.84;;;8.88;43.55
33953;BME280;20231;42.710;23.280;2023-02-13T13:26:37;96504.69;;;8.91;43.56
33953;BME280;20231;42.710;23.280;2023-02-13T13:29:16;96504.91;;;8.55;44.40
33953;BME280;20231;42.710;23.280;2023-02-13T13:31:53;96502.88;;;9.42;61.60
33953;BME280;20231;42.710;23.280;2023-02-13T13:34:23;96492.78;;;9.50;44.49
33953;BME280;20231;42.710;23.280;2023-02-13T13:49:59;96493.25;;;9.47;43.11
33953;BME280;20231;42.710;23.280;2023-02-13T13:52:33;96497.97;;;9.34;43.90
33953;BME280;20231;42.710;23.280;2023-02-13T13:55:00;96500.50;;;9.40;44.05
33953;BME280;20231;42.710;23.280;2023-02-13T14:07:39;96491.00;;;10.06;43.30
33953;BME280;20231;42.710;23.280;2023-02-13T14:18:18;96478.25;;;9.76;42.64
33953;BME280;20231;42.710;23.280;2023-02-13T14:25:47;96451.91;;;9.76;42.67
33953;BME280;20231;42.710;23.280;2023-02-13T14:28:25;96472.50;;;9.79;42.74
33953;BME280;20231;42.710;23.280;2023-02-13T14:31:04;96460.09;;;9.63;42.89
33953;BME280;20231;42.710;23.280;2023-02-13T14:33:31;96470.16;;;9.93;43.12
33953;BME280;20231;42.710;23.280;2023-02-13T14:36:06;96469.81;;;10.18;42.67
33953;BME280;20231;42.710;23.280;2023-02-13T14:38:33;96459.19;;;10.13;42.41
33953;BME280;20231;42.710;23.280;2023-02-13T14:41:00;96469.59;;;10.19;42.25
33953;BME280;20231;42.710;23.280;2023-02-13T14:43:38;96464.31;;;10.36;41.99
33953;BME280;20231;42.710;23.280;2023-02-13T14:48:55;96473.16;;;10.30;42.14
33953;BME280;20231;42.710;23.280;2023-02-13T14:51:28;96471.81;;;10.27;41.60
33953;BME280;20231;42.710;23.280;2023-02-13T14:55:06;96469.44;;;10.26;41.58
33953;BME280;20231;42.710;23.280;2023-02-13T14:57:16;96466.75;;;10.09;41.99
33953;BME280;20231;42.710;23.280;2023-02-13T14:59:50;96461.84;;;10.29;41.61
33953;BME280;20231;42.710;23.280;2023-02-13T15:02:24;96463.81;;;10.06;42.06
33953;BME280;20231;42.710;23.280;2023-02-13T15:05:02;96463.59;;;9.68;42.57
33953;BME280;20231;42.710;23.280;2023-02-13T15:07:34;96449.50;;;9.46;42.83
33953;BME280;20231;42.710;23.280;2023-02-13T15:10:12;96468.19;;;9.45;43.16
33953;BME280;20231;42.710;23.280;2023-02-13T15:12:55;96462.69;;;9.35;43.40
33953;BME280;20231;42.710;23.280;2023-02-13T15:15:24;96459.06;;;9.64;43.22
33953;BME280;20231;42.710;23.280;2023-02-13T15:17:58;96460.22;;;9.56;42.52
33953;BME280;20231;42.710;23.280;2023-02-13T15:20:31;96463.69;;;9.45;43.28
33953;BME280;20231;42.710;23.280;2023-02-13T15:22:57;96476.00;;;9.28;43.51
33953;BME280;20231;42.710;23.280;2023-02-13T15:25:36;96467.09;;;9.07;43.57
33953;BME280;20231;42.710;23.280;2023-02-13T15:28:04;96463.44;;;9.08;43.68
33953;BME280;20231;42.710;23.280;2023-02-13T15:30:32;96442.53;;;8.78;43.83
33953;BME280;20231;42.710;23.280;2023-02-13T15:33:16;96464.31;;;9.24;43.64
33953;BME280;20231;42.710;23.280;2023-02-13T15:35:42;96454.63;;;9.02;43.33
33953;BME280;20231;42.710;23.280;2023-02-13T15:38:34;96473.63;;;9.16;43.39
33953;BME280;20231;42.710;23.280;2023-02-13T15:41:43;96468.03;;;9.12;43.50
33953;BME280;20231;42.710;23.280;2023-02-13T15:44:00;96481.88;;;9.08;43.37
33953;BME280;20231;42.710;23.280;2023-02-13T15:46:33;96478.56;;;9.12;43.70